createdAt,value
2022-11-10T00:02:29.637Z,13.90
2022-11-10T00:05:16.034Z,13.80
2022-11-10T00:08:10.560Z,13.80
2022-11-10T00:10:58.874Z,13.80
2022-11-10T00:14:06.353Z,13.80
2022-11-10T00:17:00.898Z,13.80
2022-11-10T00:19:46.071Z,13.80
2022-11-10T00:22:34.175Z,13.70
2022-11-10T00:25:19.930Z,13.70
2022-11-10T00:28:05.199Z,13.70
2022-11-10T00:30:50.650Z,13.70
2022-11-10T00:33:41.186Z,13.70
2022-11-10T00:36:26.686Z,13.70
2022-11-10T00:39:12.393Z,13.70
2022-11-10T00:41:57.538Z,13.70
2022-11-10T00:44:43.159Z,13.70
2022-11-10T00:47:28.694Z,13.60
2022-11-10T00:50:14.647Z,13.70
2022-11-10T00:53:00.417Z,13.70
2022-11-10T00:55:46.153Z,13.70
2022-11-10T00:58:31.390Z,13.60
2022-11-10T01:01:18.486Z,13.60
2022-11-10T01:04:04.133Z,13.60
2022-11-10T01:06:49.618Z,13.60
2022-11-10T01:09:34.847Z,13.60
2022-11-10T01:12:20.344Z,13.60
2022-11-10T01:15:06.263Z,13.60
2022-11-10T01:17:52.319Z,13.60
2022-11-10T01:20:37.859Z,13.60
2022-11-10T01:23:23.629Z,13.60
2022-11-10T01:26:12.616Z,13.50
2022-11-10T01:28:58.208Z,13.60
2022-11-10T01:31:44.250Z,13.50
2022-11-10T01:34:29.822Z,13.50
2022-11-10T01:37:15.324Z,13.50
2022-11-10T01:40:00.866Z,13.50
2022-11-10T01:42:58.094Z,13.50
2022-11-10T01:46:15.936Z,13.50
2022-11-10T01:49:03.565Z,13.60
2022-11-10T01:51:54.882Z,13.60
2022-11-10T01:54:46.212Z,13.60
2022-11-10T01:57:32.071Z,13.50
2022-11-10T02:00:18.669Z,13.60
2022-11-10T02:03:15.230Z,13.60
2022-11-10T02:06:01.351Z,13.60
2022-11-10T02:08:47.812Z,13.60
2022-11-10T02:11:34.122Z,13.60
2022-11-10T02:14:19.424Z,13.60
2022-11-10T02:17:04.838Z,13.60
2022-11-10T02:19:51.824Z,13.60
2022-11-10T02:22:38.311Z,13.60
2022-11-10T02:25:29.198Z,13.60
2022-11-10T02:28:14.815Z,13.50
2022-11-10T02:31:00.293Z,13.50
2022-11-10T02:33:45.458Z,13.50
2022-11-10T02:36:31.097Z,13.50
2022-11-10T02:39:16.636Z,13.50
2022-11-10T02:42:02.398Z,13.50
2022-11-10T02:44:48.189Z,13.50
2022-11-10T02:47:33.492Z,13.50
2022-11-10T02:50:18.981Z,13.50
2022-11-10T02:53:05.139Z,13.50
2022-11-10T02:55:50.592Z,13.40
2022-11-10T02:58:35.976Z,13.40
2022-11-10T03:01:21.493Z,13.40
2022-11-10T03:04:07.464Z,13.40
2022-11-10T03:06:52.867Z,13.40
2022-11-10T03:09:38.259Z,13.40
2022-11-10T03:12:23.701Z,13.40
2022-11-10T03:15:09.649Z,13.40
2022-11-10T03:17:55.201Z,13.40
2022-11-10T03:20:41.186Z,13.40
2022-11-10T03:23:26.364Z,13.40
2022-11-10T03:26:11.796Z,13.40
2022-11-10T03:28:57.493Z,13.30
2022-11-10T03:31:42.650Z,13.30
2022-11-10T03:34:31.631Z,13.30
2022-11-10T03:37:17.190Z,13.30
2022-11-10T03:40:02.429Z,13.30
2022-11-10T03:42:47.984Z,13.20
2022-11-10T03:45:33.252Z,13.20
2022-11-10T03:48:18.736Z,13.20
2022-11-10T03:51:04.109Z,13.10
2022-11-10T03:53:49.757Z,13.10
2022-11-10T03:56:35.132Z,13.20
2022-11-10T03:59:20.256Z,13.10
2022-11-10T04:02:05.681Z,13.10
2022-11-10T04:05:09.629Z,13.10
2022-11-10T04:08:20.101Z,13.10
2022-11-10T04:11:05.765Z,13.10
2022-11-10T04:14:09.497Z,13.10
2022-11-10T04:16:55.472Z,13.10
2022-11-10T04:19:40.674Z,13.10
2022-11-10T04:22:44.459Z,13.10
2022-11-10T04:25:29.998Z,13.10
2022-11-10T04:28:15.327Z,13.10
2022-11-10T04:31:00.759Z,13.10
2022-11-10T04:33:47.357Z,13.10
2022-11-10T04:36:34.612Z,13.20
2022-11-10T04:39:19.811Z,13.20
2022-11-10T04:42:04.926Z,13.20
2022-11-10T04:44:50.294Z,13.10
2022-11-10T04:47:35.785Z,13.20
2022-11-10T04:50:20.902Z,13.20
2022-11-10T04:53:06.514Z,13.20
2022-11-10T04:55:52.160Z,13.20
2022-11-10T04:58:37.671Z,13.20
2022-11-10T05:01:25.777Z,13.20
2022-11-10T05:04:11.127Z,13.20
2022-11-10T05:06:56.750Z,13.20
2022-11-10T05:09:42.075Z,13.20
2022-11-10T05:12:27.330Z,13.20
2022-11-10T05:15:12.873Z,13.20
2022-11-10T05:17:58.017Z,13.20
2022-11-10T05:20:43.728Z,13.20
2022-11-10T05:23:38.023Z,13.20
2022-11-10T05:26:23.240Z,13.20
2022-11-10T05:29:08.483Z,13.20
2022-11-10T05:31:54.096Z,13.20
2022-11-10T05:34:39.489Z,13.20
2022-11-10T05:37:25.024Z,13.20
2022-11-10T05:40:11.352Z,13.20
2022-11-10T05:42:57.137Z,13.10
2022-11-10T05:45:45.901Z,13.20
2022-11-10T05:48:31.125Z,13.10
2022-11-10T05:51:16.430Z,13.10
2022-11-10T05:54:01.818Z,13.10
2022-11-10T05:56:46.912Z,13.10
2022-11-10T05:59:32.467Z,13.10
2022-11-10T06:02:17.960Z,13.10
2022-11-10T06:05:03.784Z,13.10
2022-11-10T06:07:49.377Z,13.10
2022-11-10T06:10:36.432Z,13.10
2022-11-10T06:13:22.147Z,13.00
2022-11-10T06:16:07.869Z,13.10
2022-11-10T06:18:53.097Z,13.10
2022-11-10T06:21:38.814Z,13.10
2022-11-10T06:24:24.054Z,13.10
2022-11-10T06:27:09.539Z,13.10
2022-11-10T06:29:55.148Z,13.10
2022-11-10T06:32:44.164Z,13.10
2022-11-10T06:35:30.434Z,13.10
2022-11-10T06:38:15.802Z,13.10
2022-11-10T06:41:01.358Z,13.10
2022-11-10T06:43:46.940Z,13.10
2022-11-10T06:46:32.542Z,13.10
2022-11-10T06:49:17.718Z,13.10
2022-11-10T06:52:03.317Z,13.10
2022-11-10T06:54:48.383Z,13.10
2022-11-10T06:57:40.127Z,13.00
2022-11-10T07:00:27.183Z,13.00
2022-11-10T07:03:16.045Z,13.00
2022-11-10T07:06:01.423Z,13.00
2022-11-10T07:08:47.313Z,13.00
2022-11-10T07:11:32.422Z,13.00
2022-11-10T07:14:17.660Z,13.00
2022-11-10T07:17:03.144Z,13.00
2022-11-10T07:19:48.428Z,13.00
2022-11-10T07:22:33.953Z,13.00
2022-11-10T07:25:19.072Z,13.10
2022-11-10T07:28:07.000Z,13.10
2022-11-10T07:30:52.805Z,13.10
2022-11-10T07:33:38.211Z,13.10
2022-11-10T07:36:23.815Z,13.10
2022-11-10T07:39:10.194Z,13.10
2022-11-10T07:41:56.059Z,13.10
2022-11-10T07:44:41.546Z,13.10
2022-11-10T07:47:26.864Z,13.20
2022-11-10T07:50:12.489Z,13.20
2022-11-10T07:53:13.650Z,13.20
2022-11-10T07:55:59.183Z,13.30
2022-11-10T07:58:44.480Z,13.30
2022-11-10T08:01:29.933Z,13.40
2022-11-10T08:04:15.233Z,13.50
2022-11-10T08:07:00.463Z,13.50
2022-11-10T08:09:46.054Z,13.60
2022-11-10T08:12:33.777Z,13.60
2022-11-10T08:15:19.359Z,13.70
2022-11-10T08:18:06.321Z,13.70
2022-11-10T08:20:52.649Z,13.80
2022-11-10T08:23:37.719Z,13.80
2022-11-10T08:26:23.189Z,14.00
2022-11-10T08:29:08.767Z,14.10
2022-11-10T08:31:53.848Z,14.30
2022-11-10T08:34:39.350Z,14.50
2022-11-10T08:37:26.941Z,14.80
2022-11-10T08:40:12.680Z,15.10
2022-11-10T08:43:00.017Z,15.40
2022-11-10T08:45:46.029Z,15.70
2022-11-10T08:48:31.161Z,15.90
2022-11-10T08:51:16.379Z,16.00
2022-11-10T08:54:01.948Z,16.10
2022-11-10T08:56:47.519Z,16.10
2022-11-10T08:59:32.854Z,16.20
2022-11-10T09:02:18.480Z,16.30
2022-11-10T09:05:04.000Z,16.50
2022-11-10T09:07:50.358Z,16.70
2022-11-10T09:10:38.594Z,16.80
2022-11-10T09:13:29.401Z,17.10
2022-11-10T09:16:15.564Z,17.20
2022-11-10T09:19:01.033Z,17.40
2022-11-10T09:21:46.638Z,17.50
2022-11-10T09:24:32.230Z,17.70
2022-11-10T09:27:17.704Z,17.90
2022-11-10T09:30:07.080Z,18.00
2022-11-10T09:32:56.951Z,18.30
2022-11-10T09:35:43.009Z,18.40
2022-11-10T09:38:28.615Z,18.60
2022-11-10T09:41:15.145Z,18.70
2022-11-10T09:44:29.292Z,18.80
2022-11-10T09:47:55.506Z,19.00
2022-11-10T09:50:42.409Z,19.20
2022-11-10T09:53:38.016Z,19.30
2022-11-10T09:56:33.277Z,19.40
2022-11-10T09:59:27.357Z,19.50
2022-11-10T10:02:35.834Z,19.60
2022-11-10T10:05:39.110Z,19.60
2022-11-10T10:08:39.822Z,19.50
2022-11-10T10:12:00.138Z,19.40
2022-11-10T10:14:45.632Z,19.30
2022-11-10T10:17:41.635Z,19.10
2022-11-10T10:20:48.307Z,18.90
2022-11-10T10:24:02.622Z,18.80
2022-11-10T10:26:50.754Z,18.60
2022-11-10T10:29:43.423Z,18.60
2022-11-10T10:32:29.025Z,18.50
2022-11-10T10:35:18.676Z,18.50
2022-11-10T10:38:09.805Z,18.50
2022-11-10T10:41:03.247Z,18.50
2022-11-10T10:43:51.273Z,18.40
2022-11-10T10:46:56.967Z,18.40
2022-11-10T10:49:42.098Z,18.50
2022-11-10T10:52:27.707Z,18.40
2022-11-10T10:55:14.047Z,18.40
2022-11-10T10:58:02.488Z,18.50
2022-11-10T11:00:54.066Z,18.50
2022-11-10T11:03:39.960Z,18.50
2022-11-10T11:06:33.327Z,18.50
2022-11-10T11:09:24.110Z,18.40
2022-11-10T11:12:20.165Z,18.40
2022-11-10T11:15:29.655Z,18.40
2022-11-10T11:18:19.373Z,18.40
2022-11-10T11:21:07.893Z,18.40
2022-11-10T11:24:14.916Z,18.40
2022-11-10T11:27:10.519Z,18.40
2022-11-10T11:30:04.794Z,18.40
2022-11-10T11:33:10.976Z,18.40
2022-11-10T11:36:31.468Z,18.40
2022-11-10T11:39:25.486Z,18.40
2022-11-10T11:42:39.814Z,18.40
2022-11-10T11:45:33.638Z,18.40
2022-11-10T11:48:21.951Z,18.50
2022-11-10T11:51:31.899Z,18.40
2022-11-10T11:54:38.669Z,18.50
2022-11-10T11:57:39.847Z,18.50
2022-11-10T12:00:25.796Z,18.50
2022-11-10T12:03:29.027Z,18.50
2022-11-10T12:06:42.230Z,18.50
2022-11-10T12:09:45.419Z,18.60
2022-11-10T12:12:44.934Z,18.50
2022-11-10T12:15:48.252Z,18.50
2022-11-10T12:18:48.549Z,18.50
2022-11-10T12:21:44.186Z,18.50
2022-11-10T12:24:39.778Z,18.50
2022-11-10T12:27:37.206Z,18.40
2022-11-10T12:30:22.940Z,18.40
2022-11-10T12:33:40.859Z,18.40
2022-11-10T12:36:29.211Z,18.40
2022-11-10T12:39:34.830Z,18.40
2022-11-10T12:42:24.727Z,18.40
2022-11-10T12:45:56.303Z,18.40
2022-11-10T12:49:00.795Z,18.40
2022-11-10T12:51:57.223Z,18.40
2022-11-10T12:54:46.230Z,18.50
2022-11-10T12:57:33.152Z,18.50
2022-11-10T13:00:28.120Z,18.50
2022-11-10T13:03:23.967Z,18.50
2022-11-10T13:06:30.539Z,18.50
2022-11-10T13:09:27.629Z,18.60
2022-11-10T13:12:18.687Z,18.50
2022-11-10T13:15:38.949Z,18.50
2022-11-10T13:18:43.918Z,18.60
2022-11-10T13:21:51.433Z,18.50
2022-11-10T13:24:38.929Z,18.50
2022-11-10T13:27:33.424Z,18.40
2022-11-10T13:30:43.480Z,18.40
2022-11-10T13:33:29.833Z,18.40
2022-11-10T13:36:40.132Z,18.40
2022-11-10T13:39:29.034Z,18.40
2022-11-10T13:42:20.138Z,18.40
2022-11-10T13:45:42.661Z,18.50
2022-11-10T13:49:19.532Z,18.50
2022-11-10T13:52:26.777Z,18.50
2022-11-10T13:55:51.512Z,18.50
2022-11-10T13:58:40.242Z,18.50
2022-11-10T14:01:30.283Z,18.50
2022-11-10T14:04:45.156Z,18.40
2022-11-10T14:07:39.092Z,18.40
2022-11-10T14:10:56.494Z,18.40
2022-11-10T14:13:47.591Z,18.40
2022-11-10T14:16:39.569Z,18.30
2022-11-10T14:19:44.157Z,18.30
2022-11-10T14:22:39.378Z,18.30
2022-11-10T14:25:36.495Z,18.30
2022-11-10T14:28:30.387Z,18.20
2022-11-10T14:31:26.431Z,18.20
2022-11-10T14:34:17.031Z,18.20
2022-11-10T14:37:04.011Z,18.20
2022-11-10T14:39:53.373Z,18.20
2022-11-10T14:42:39.215Z,18.20
2022-11-10T14:45:27.138Z,18.20
2022-11-10T14:48:22.707Z,18.10
2022-11-10T14:51:18.049Z,18.10
2022-11-10T14:54:03.575Z,18.10
2022-11-10T14:56:48.903Z,18.00
2022-11-10T14:59:34.555Z,18.00
2022-11-10T15:02:21.946Z,18.00
2022-11-10T15:05:13.913Z,18.00
2022-11-10T15:08:01.541Z,18.00
2022-11-10T15:10:53.392Z,18.00
2022-11-10T15:13:39.976Z,17.90
2022-11-10T15:16:29.689Z,17.90
2022-11-10T15:19:53.442Z,17.90
2022-11-10T15:22:38.840Z,17.90
2022-11-10T15:25:30.819Z,17.80
2022-11-10T15:28:29.371Z,17.70
2022-11-10T15:31:36.679Z,17.70
2022-11-10T15:34:43.138Z,17.60
2022-11-10T15:37:31.466Z,17.60
2022-11-10T15:40:42.892Z,17.50
2022-11-10T15:43:28.399Z,17.50
2022-11-10T15:46:23.920Z,17.40
2022-11-10T15:49:24.264Z,17.40
2022-11-10T15:52:14.917Z,17.30
2022-11-10T15:55:00.150Z,17.30
2022-11-10T15:57:45.495Z,17.30
2022-11-10T16:00:30.970Z,17.30
2022-11-10T16:03:21.565Z,17.20
2022-11-10T16:06:07.429Z,17.30
2022-11-10T16:08:52.920Z,17.20
2022-11-10T16:11:40.572Z,17.20
2022-11-10T16:14:25.683Z,17.20
2022-11-10T16:17:12.165Z,17.20
2022-11-10T16:19:57.361Z,17.20
2022-11-10T16:22:42.504Z,17.10
2022-11-10T16:25:27.920Z,17.10
2022-11-10T16:28:17.767Z,17.10
2022-11-10T16:31:03.402Z,17.00
2022-11-10T16:33:50.334Z,17.00
2022-11-10T16:36:35.508Z,17.00
2022-11-10T16:39:20.988Z,16.90
2022-11-10T16:42:06.340Z,16.80
2022-11-10T16:44:51.545Z,16.70
2022-11-10T16:47:37.136Z,16.60
2022-11-10T16:50:34.426Z,16.50
2022-11-10T16:53:28.225Z,16.50
2022-11-10T16:56:18.638Z,16.50
2022-11-10T16:59:04.435Z,16.40
2022-11-10T17:01:50.150Z,16.40
2022-11-10T17:04:35.580Z,16.40
2022-11-10T17:07:25.985Z,16.40
2022-11-10T17:10:16.296Z,16.40
2022-11-10T17:13:01.501Z,16.40
2022-11-10T17:15:47.343Z,16.40
2022-11-10T17:18:34.732Z,16.40
2022-11-10T17:21:21.341Z,16.40
2022-11-10T17:24:08.106Z,16.40
2022-11-10T17:26:53.492Z,16.30
2022-11-10T17:29:38.776Z,16.30
2022-11-10T17:32:43.198Z,16.20
2022-11-10T17:35:29.501Z,16.10
2022-11-10T17:38:42.110Z,16.10
2022-11-10T17:41:27.628Z,16.10
2022-11-10T17:44:15.584Z,16.00
2022-11-10T17:47:01.067Z,16.00
2022-11-10T17:49:46.399Z,15.90
2022-11-10T17:52:32.037Z,15.90
2022-11-10T17:55:18.811Z,15.80
2022-11-10T17:58:04.038Z,15.70
2022-11-10T18:00:49.551Z,15.70
2022-11-10T18:03:34.688Z,15.60
2022-11-10T18:06:21.151Z,15.60
2022-11-10T18:09:06.671Z,15.60
2022-11-10T18:11:51.942Z,15.50
2022-11-10T18:14:37.494Z,15.50
2022-11-10T18:17:22.946Z,15.50
2022-11-10T18:20:09.913Z,15.50
2022-11-10T18:22:55.208Z,15.50
2022-11-10T18:25:42.083Z,15.40
2022-11-10T18:28:27.606Z,15.30
2022-11-10T18:31:13.702Z,15.30
2022-11-10T18:33:59.197Z,15.20
2022-11-10T18:36:44.457Z,15.20
2022-11-10T18:39:29.773Z,15.20
2022-11-10T18:42:15.219Z,15.10
2022-11-10T18:45:00.643Z,15.10
2022-11-10T18:47:46.043Z,15.00
2022-11-10T18:50:31.752Z,15.00
2022-11-10T18:53:17.150Z,15.00
2022-11-10T18:56:03.006Z,15.00
2022-11-10T18:58:56.176Z,15.00
2022-11-10T19:01:42.478Z,15.00
2022-11-10T19:04:27.638Z,15.00
2022-11-10T19:07:12.928Z,15.10
2022-11-10T19:09:58.369Z,15.10
2022-11-10T19:12:43.703Z,15.00
2022-11-10T19:15:29.350Z,15.00
2022-11-10T19:18:15.195Z,15.00
2022-11-10T19:21:07.685Z,14.90
2022-11-10T19:23:57.366Z,14.90
2022-11-10T19:26:42.595Z,14.90
2022-11-10T19:29:27.870Z,14.90
2022-11-10T19:32:13.160Z,14.90
2022-11-10T19:34:58.655Z,14.80
2022-11-10T19:37:44.444Z,14.80
2022-11-10T19:40:29.887Z,14.80
2022-11-10T19:43:14.880Z,14.80
2022-11-10T19:46:05.115Z,14.80
2022-11-10T19:48:50.937Z,14.70
2022-11-10T19:51:36.232Z,14.70
2022-11-10T19:54:21.699Z,14.70
2022-11-10T19:57:07.287Z,14.70
2022-11-10T19:59:52.802Z,14.70
2022-11-10T20:02:44.265Z,14.60
2022-11-10T20:05:30.920Z,14.60
2022-11-10T20:08:16.524Z,14.60
2022-11-10T20:11:05.461Z,14.60
2022-11-10T20:13:55.974Z,14.60
2022-11-10T20:16:41.467Z,14.60
2022-11-10T20:19:26.974Z,14.60
2022-11-10T20:22:12.821Z,14.60
2022-11-10T20:24:58.429Z,14.60
2022-11-10T20:27:43.657Z,14.60
2022-11-10T20:30:29.699Z,14.50
2022-11-10T20:33:14.848Z,14.50
2022-11-10T20:36:08.151Z,14.50
2022-11-10T20:38:55.574Z,14.50
2022-11-10T20:41:41.280Z,14.50
2022-11-10T20:44:26.465Z,14.50
2022-11-10T20:47:11.960Z,14.50
2022-11-10T20:49:57.666Z,14.50
2022-11-10T20:52:42.986Z,14.50
2022-11-10T20:55:52.153Z,14.50
2022-11-10T20:58:34.358Z,14.40
2022-11-10T21:01:20.550Z,14.40
2022-11-10T21:04:06.731Z,14.30
2022-11-10T21:06:51.970Z,14.30
2022-11-10T21:09:37.517Z,14.30
2022-11-10T21:12:41.159Z,14.30
2022-11-10T21:15:26.575Z,14.20
2022-11-10T21:18:11.796Z,14.20
2022-11-10T21:20:57.250Z,14.20
2022-11-10T21:23:42.613Z,14.10
2022-11-10T21:26:28.354Z,14.20
2022-11-10T21:29:13.834Z,14.20
2022-11-10T21:31:59.088Z,14.10
2022-11-10T21:34:44.703Z,14.20
2022-11-10T21:37:29.875Z,14.20
2022-11-10T21:40:15.733Z,14.20
2022-11-10T21:43:00.894Z,14.10
2022-11-10T21:45:46.363Z,14.20
2022-11-10T21:48:31.812Z,14.20
2022-11-10T21:51:19.774Z,14.20
2022-11-10T21:54:04.989Z,14.20
2022-11-10T21:56:50.246Z,14.20
2022-11-10T21:59:35.715Z,14.20
2022-11-10T22:02:20.915Z,14.20
2022-11-10T22:05:06.695Z,14.20
2022-11-10T22:07:51.937Z,14.20
2022-11-10T22:10:55.938Z,14.20
2022-11-10T22:13:59.801Z,14.20
2022-11-10T22:17:08.352Z,14.10
2022-11-10T22:19:54.024Z,14.10
2022-11-10T22:22:39.572Z,14.00
2022-11-10T22:25:25.164Z,14.00
2022-11-10T22:28:10.655Z,14.00
2022-11-10T22:30:55.977Z,14.00
2022-11-10T22:33:43.143Z,13.90
2022-11-10T22:36:28.369Z,13.90
2022-11-10T22:39:14.025Z,13.90
2022-11-10T22:42:17.714Z,13.90
2022-11-10T22:45:03.426Z,13.90
2022-11-10T22:48:07.095Z,13.90
2022-11-10T22:50:56.379Z,13.90
2022-11-10T22:53:41.946Z,13.80
2022-11-10T22:56:27.331Z,13.90
2022-11-10T22:59:13.725Z,13.90
2022-11-10T23:01:59.015Z,13.90
2022-11-10T23:04:44.931Z,13.80
2022-11-10T23:07:30.482Z,13.80
2022-11-10T23:10:16.119Z,13.80
2022-11-10T23:13:01.766Z,13.80
2022-11-10T23:15:52.025Z,13.70
2022-11-10T23:18:38.710Z,13.70
2022-11-10T23:21:27.328Z,13.70
2022-11-10T23:24:13.553Z,13.70
2022-11-10T23:26:59.015Z,13.70
2022-11-10T23:29:44.241Z,13.70
2022-11-10T23:32:29.381Z,13.70
2022-11-10T23:35:14.637Z,13.70
2022-11-10T23:38:00.284Z,13.70
2022-11-10T23:40:45.440Z,13.70
2022-11-10T23:43:30.937Z,13.60
2022-11-10T23:46:16.508Z,13.60
2022-11-10T23:49:02.197Z,13.60
2022-11-10T23:51:47.787Z,13.60
2022-11-10T23:54:33.209Z,13.60
2022-11-10T23:57:18.637Z,13.70
